createdAt,value
2022-11-01T00:00:48.733Z,99396.16
2022-11-01T00:03:16.369Z,99389.56
2022-11-01T00:05:43.926Z,99390.22
2022-11-01T00:08:13.215Z,99386.13
2022-11-01T00:10:40.881Z,99383.03
2022-11-01T00:13:08.431Z,99393.47
2022-11-01T00:15:36.392Z,99391.41
2022-11-01T00:18:04.250Z,99392.25
2022-11-01T00:20:33.729Z,99395.16
2022-11-01T00:23:01.927Z,99388.91
2022-11-01T00:25:29.766Z,99382.69
2022-11-01T00:27:57.371Z,99388.91
2022-11-01T00:30:24.903Z,99385.56
2022-11-01T00:32:53.008Z,99381.19
2022-11-01T00:35:20.987Z,99377.00
2022-11-01T00:37:48.555Z,99369.94
2022-11-01T00:40:16.221Z,99370.13
2022-11-01T00:42:43.758Z,99366.13
2022-11-01T00:45:11.344Z,99356.56
2022-11-01T00:47:39.299Z,99344.44
2022-11-01T00:50:06.866Z,99351.06
2022-11-01T00:52:34.432Z,99324.47
2022-11-01T00:55:02.009Z,99340.00
2022-11-01T00:57:29.910Z,99350.16
2022-11-01T00:59:57.855Z,99365.66
2022-11-01T01:02:25.516Z,99358.81
2022-11-01T01:04:53.143Z,99364.22
2022-11-01T01:07:20.687Z,99352.75
2022-11-01T01:09:48.297Z,99373.22
2022-11-01T01:12:16.222Z,99370.69
2022-11-01T01:14:43.750Z,99366.81
2022-11-01T01:17:11.369Z,99358.56
2022-11-01T01:19:39.268Z,99352.22
2022-11-01T01:22:06.810Z,99344.00
2022-11-01T01:24:34.566Z,99344.56
2022-11-01T01:27:02.135Z,99349.66
2022-11-01T01:29:29.671Z,99330.53
2022-11-01T01:31:57.301Z,99336.47
2022-11-01T01:34:24.865Z,99345.91
2022-11-01T01:36:52.419Z,99351.03
2022-11-01T01:39:20.008Z,99353.22
2022-11-01T01:41:59.704Z,99353.56
2022-11-01T01:44:27.312Z,99357.66
2022-11-01T01:46:54.858Z,99372.13
2022-11-01T01:49:22.368Z,99376.84
2022-11-01T01:51:49.977Z,99378.72
2022-11-01T01:54:17.541Z,99374.38
2022-11-01T01:56:45.541Z,99368.28
2022-11-01T01:59:14.314Z,99355.03
2022-11-01T02:01:41.976Z,99342.75
2022-11-01T02:04:10.043Z,99331.16
2022-11-01T02:06:37.587Z,99322.91
2022-11-01T02:09:07.701Z,99321.03
2022-11-01T02:11:35.632Z,99318.34
2022-11-01T02:14:03.210Z,99315.84
2022-11-01T02:16:30.778Z,99322.25
2022-11-01T02:18:58.324Z,99325.41
2022-11-01T02:21:27.213Z,99315.31
2022-11-01T02:23:55.204Z,99317.81
2022-11-01T02:26:23.098Z,99304.81
2022-11-01T02:28:50.692Z,99297.03
2022-11-01T02:31:18.205Z,99298.53
2022-11-01T02:33:45.747Z,99304.56
2022-11-01T02:36:13.557Z,99307.25
2022-11-01T02:38:41.084Z,99311.81
2022-11-01T02:41:08.582Z,99307.47
2022-11-01T02:43:36.213Z,99307.47
2022-11-01T02:46:26.206Z,99308.09
2022-11-01T02:48:53.741Z,99308.94
2022-11-01T02:51:21.296Z,99314.31
2022-11-01T02:53:48.827Z,99318.03
2022-11-01T02:56:16.373Z,99313.00
2022-11-01T02:58:44.786Z,99323.78
2022-11-01T03:01:15.407Z,99333.38
2022-11-01T03:03:43.098Z,99335.69
2022-11-01T03:06:10.629Z,99343.38
2022-11-01T03:08:38.636Z,99331.25
2022-11-01T03:11:06.911Z,99321.13
2022-11-01T03:13:34.463Z,99330.53
2022-11-01T03:16:02.041Z,99323.09
2022-11-01T03:18:29.651Z,99335.38
2022-11-01T03:20:59.388Z,99331.47
2022-11-01T03:23:27.364Z,99326.72
2022-11-01T03:25:54.952Z,99321.34
2022-11-01T03:28:22.949Z,99328.56
2022-11-01T03:30:50.502Z,99335.66
2022-11-01T03:33:20.596Z,99333.97
2022-11-01T03:35:48.556Z,99333.97
2022-11-01T03:38:16.124Z,99335.84
2022-11-01T03:40:44.075Z,99334.81
2022-11-01T03:43:11.609Z,99326.72
2022-11-01T03:45:40.527Z,99331.47
2022-11-01T03:48:08.548Z,99340.38
2022-11-01T03:50:36.409Z,99343.28
2022-11-01T03:53:03.981Z,99335.19
2022-11-01T03:55:31.570Z,99338.22
2022-11-01T03:58:00.804Z,99341.94
2022-11-01T04:00:28.986Z,99329.50
2022-11-01T04:02:56.749Z,99335.91
2022-11-01T04:05:24.333Z,99338.59
2022-11-01T04:07:52.511Z,99347.72
2022-11-01T04:10:20.122Z,99353.09
2022-11-01T04:12:48.820Z,99362.19
2022-11-01T04:15:33.641Z,99367.13
2022-11-01T04:18:18.550Z,99367.28
2022-11-01T04:20:49.094Z,99368.31
2022-11-01T04:23:17.030Z,99375.53
2022-11-01T04:25:44.590Z,99383.78
2022-11-01T04:28:12.227Z,99379.78
2022-11-01T04:30:39.845Z,99384.88
2022-11-01T04:33:10.568Z,99378.84
2022-11-01T04:35:38.702Z,99377.50
2022-11-01T04:38:06.668Z,99379.38
2022-11-01T04:40:34.511Z,99372.13
2022-11-01T04:43:02.106Z,99375.81
2022-11-01T04:45:31.326Z,99380.19
2022-11-01T04:47:59.534Z,99366.72
2022-11-01T04:50:27.363Z,99374.81
2022-11-01T04:52:54.894Z,99381.91
2022-11-01T04:55:22.823Z,99387.28
2022-11-01T04:57:50.435Z,99400.75
2022-11-01T05:00:18.381Z,99381.03
2022-11-01T05:02:45.948Z,99378.34
2022-11-01T05:05:13.606Z,99391.97
2022-11-01T05:07:41.172Z,99405.66
2022-11-01T05:10:10.363Z,99406.66
2022-11-01T05:12:37.984Z,99416.94
2022-11-01T05:15:05.660Z,99414.59
2022-11-01T05:17:33.560Z,99403.19
2022-11-01T05:20:01.194Z,99402.50
2022-11-01T05:22:28.773Z,99417.78
2022-11-01T05:24:56.699Z,99425.22
2022-11-01T05:27:24.308Z,99413.97
2022-11-01T05:29:51.893Z,99425.91
2022-11-01T05:32:19.452Z,99415.53
2022-11-01T05:34:49.932Z,99424.41
2022-11-01T05:37:17.896Z,99431.84
2022-11-01T05:39:45.446Z,99432.84
2022-11-01T05:42:13.099Z,99443.78
2022-11-01T05:44:40.708Z,99437.75
2022-11-01T05:47:09.660Z,99430.69
2022-11-01T05:49:39.145Z,99430.84
2022-11-01T05:52:06.724Z,99442.63
2022-11-01T05:54:34.332Z,99442.81
2022-11-01T05:57:01.955Z,99445.66
2022-11-01T05:59:29.545Z,99446.19
2022-11-01T06:01:57.653Z,99446.38
2022-11-01T06:04:25.398Z,99444.03
2022-11-01T06:06:52.963Z,99443.22
2022-11-01T06:09:20.581Z,99445.03
2022-11-01T06:11:49.869Z,99460.69
2022-11-01T06:14:17.891Z,99451.81
2022-11-01T06:16:45.515Z,99458.84
2022-11-01T06:19:13.160Z,99469.44
2022-11-01T06:21:40.797Z,99463.06
2022-11-01T06:24:11.972Z,99472.97
2022-11-01T06:26:39.913Z,99484.59
2022-11-01T06:29:07.586Z,99474.81
2022-11-01T06:31:35.235Z,99494.50
2022-11-01T06:34:02.887Z,99494.13
2022-11-01T06:36:32.048Z,99504.88
2022-11-01T06:38:59.661Z,99517.34
2022-11-01T06:41:27.246Z,99524.22
2022-11-01T06:43:54.825Z,99526.75
2022-11-01T06:46:22.851Z,99526.59
2022-11-01T06:48:50.480Z,99529.94
2022-11-01T06:51:18.416Z,99537.84
2022-11-01T06:53:46.041Z,99534.94
2022-11-01T06:56:13.718Z,99542.53
2022-11-01T06:58:41.338Z,99552.94
2022-11-01T07:01:09.062Z,99564.38
2022-11-01T07:03:37.628Z,99564.19
2022-11-01T07:06:05.259Z,99581.00
2022-11-01T07:08:32.886Z,99580.19
2022-11-01T07:11:00.747Z,99583.03
2022-11-01T07:13:33.879Z,99583.03
2022-11-01T07:16:02.157Z,99594.47
2022-11-01T07:18:30.670Z,99607.94
2022-11-01T07:20:58.268Z,99605.22
2022-11-01T07:23:25.903Z,99621.75
2022-11-01T07:25:54.105Z,99615.00
2022-11-01T07:28:22.099Z,99641.25
2022-11-01T07:30:49.787Z,99627.31
2022-11-01T07:33:17.427Z,99637.41
2022-11-01T07:35:45.052Z,99635.03
2022-11-01T07:38:14.798Z,99642.44
2022-11-01T07:40:42.942Z,99652.22
2022-11-01T07:43:10.604Z,99659.28
2022-11-01T07:45:38.412Z,99672.88
2022-11-01T07:48:06.190Z,99672.22
2022-11-01T07:50:34.379Z,99680.44
2022-11-01T07:53:02.873Z,99682.63
2022-11-01T07:55:30.626Z,99686.31
2022-11-01T07:57:58.302Z,99707.09
2022-11-01T08:00:26.214Z,99713.59
2022-11-01T08:02:53.996Z,99710.91
2022-11-01T08:05:22.033Z,99722.63
2022-11-01T08:07:49.881Z,99729.78
2022-11-01T08:10:17.595Z,99732.59
2022-11-01T08:12:45.582Z,99730.25
2022-11-01T08:15:13.430Z,99744.50
2022-11-01T08:17:41.436Z,99739.97
2022-11-01T08:20:09.201Z,99742.66
2022-11-01T08:22:37.059Z,99757.78
2022-11-01T08:25:04.880Z,99757.63
2022-11-01T08:27:34.617Z,99770.41
2022-11-01T08:30:03.717Z,99768.59
2022-11-01T08:32:31.436Z,99765.13
2022-11-01T08:34:59.511Z,99757.91
2022-11-01T08:37:27.287Z,99766.19
2022-11-01T08:39:57.287Z,99774.94
2022-11-01T08:42:25.345Z,99775.41
2022-11-01T08:44:53.153Z,99784.47
2022-11-01T08:47:20.875Z,99778.59
2022-11-01T08:49:48.705Z,99780.28
2022-11-01T08:52:18.130Z,99777.44
2022-11-01T08:54:46.511Z,99772.06
2022-11-01T08:57:16.173Z,99784.16
2022-11-01T08:59:43.893Z,99793.59
2022-11-01T09:02:11.728Z,99790.56
2022-11-01T09:04:41.878Z,99796.59
2022-11-01T09:07:10.164Z,99816.97
2022-11-01T09:09:37.972Z,99812.72
2022-11-01T09:12:07.043Z,99805.88
2022-11-01T09:14:36.615Z,99830.19
2022-11-01T09:17:05.800Z,99842.97
2022-11-01T09:19:34.402Z,99847.63
2022-11-01T09:22:02.364Z,99833.69
2022-11-01T09:24:30.088Z,99832.66
2022-11-01T09:26:57.971Z,99843.28
2022-11-01T09:29:27.345Z,99847.63
2022-11-01T09:31:55.407Z,99852.38
2022-11-01T09:34:23.188Z,99862.78
2022-11-01T09:36:51.260Z,99858.84
2022-11-01T09:39:22.250Z,99856.66
2022-11-01T09:41:50.095Z,99857.84
2022-11-01T09:44:18.680Z,99859.25
2022-11-01T09:46:46.573Z,99866.78
2022-11-01T09:49:15.045Z,99859.81
2022-11-01T09:51:42.972Z,99857.09
2022-11-01T09:54:11.502Z,99843.94
2022-11-01T09:56:39.726Z,99849.16
2022-11-01T09:59:07.582Z,99847.00
2022-11-01T10:01:40.547Z,99859.06
2022-11-01T10:04:09.127Z,99850.53
2022-11-01T10:06:40.850Z,99854.38
2022-11-01T10:09:08.892Z,99853.13
2022-11-01T10:11:36.950Z,99859.91
2022-11-01T10:14:04.878Z,99855.94
2022-11-01T10:16:32.742Z,99856.94
2022-11-01T10:19:01.105Z,99854.31
2022-11-01T10:21:29.881Z,99851.47
2022-11-01T10:23:57.851Z,99857.91
2022-11-01T10:26:26.072Z,99878.22
2022-11-01T10:28:53.901Z,99867.00
2022-11-01T10:31:22.280Z,99873.06
2022-11-01T10:33:50.235Z,99884.63
2022-11-01T10:36:18.138Z,99883.75
2022-11-01T10:41:36.081Z,99878.53
2022-11-01T10:44:03.918Z,99889.38
2022-11-01T10:46:32.329Z,99889.03
2022-11-01T10:49:00.255Z,99889.53
2022-11-01T10:51:28.233Z,99879.56
2022-11-01T10:53:59.454Z,99878.59
2022-11-01T10:56:27.405Z,99887.31
2022-11-01T10:58:55.367Z,99876.34
2022-11-01T11:01:23.487Z,99880.53
2022-11-01T11:03:51.590Z,99880.66
2022-11-01T11:06:21.094Z,99882.66
2022-11-01T11:08:48.951Z,99877.97
2022-11-01T11:11:16.848Z,99877.69
2022-11-01T11:13:44.741Z,99872.38
2022-11-01T11:16:12.595Z,99877.66
2022-11-01T11:18:44.194Z,99880.34
2022-11-01T11:21:12.099Z,99877.16
2022-11-01T11:23:39.948Z,99883.94
2022-11-01T11:26:07.690Z,99870.50
2022-11-01T11:28:36.026Z,99881.50
2022-11-01T11:31:07.288Z,99880.13
2022-11-01T11:33:35.087Z,99871.19
2022-11-01T11:36:03.159Z,99886.19
2022-11-01T11:38:31.020Z,99867.66
2022-11-01T11:40:58.959Z,99873.22
2022-11-01T11:43:30.901Z,99872.22
2022-11-01T11:45:58.727Z,99884.34
2022-11-01T11:48:26.614Z,99885.34
2022-11-01T11:50:54.898Z,99889.91
2022-11-01T11:53:23.535Z,99885.03
2022-11-01T11:55:53.423Z,99887.72
2022-11-01T11:58:21.280Z,99893.38
2022-11-01T12:00:49.106Z,99888.16
2022-11-01T12:03:17.817Z,99892.13
2022-11-01T12:05:45.601Z,99893.47
2022-11-01T12:08:14.168Z,99894.66
2022-11-01T12:10:42.069Z,99889.78
2022-11-01T12:13:10.052Z,99888.78
2022-11-01T12:15:41.268Z,99883.88
2022-11-01T12:18:12.933Z,99879.81
2022-11-01T12:20:43.950Z,99881.50
2022-11-01T12:23:11.873Z,99891.81
2022-11-01T12:25:39.755Z,99896.34
2022-11-01T12:28:07.507Z,99882.84
2022-11-01T12:30:35.552Z,99893.50
2022-11-01T12:33:03.921Z,99894.03
2022-11-01T12:35:31.916Z,99895.72
2022-11-01T12:38:00.109Z,99896.88
2022-11-01T12:40:28.410Z,99895.16
2022-11-01T12:42:56.371Z,99895.16
2022-11-01T12:45:25.477Z,99898.88
2022-11-01T12:47:53.330Z,99887.22
2022-11-01T12:50:21.076Z,99888.91
2022-11-01T12:52:48.957Z,99897.28
2022-11-01T12:55:19.823Z,99883.88
2022-11-01T12:57:52.555Z,99886.66
2022-11-01T13:00:21.348Z,99882.13
2022-11-01T13:02:49.222Z,99877.59
2022-11-01T13:05:17.204Z,99873.06
2022-11-01T13:07:45.150Z,99881.22
2022-11-01T13:10:15.275Z,99875.31
2022-11-01T13:12:43.395Z,99880.66
2022-11-01T13:15:11.433Z,99880.31
2022-11-01T13:17:39.541Z,99881.97
2022-11-01T13:20:07.465Z,99875.06
2022-11-01T13:22:36.724Z,99887.69
2022-11-01T13:25:04.658Z,99880.19
2022-11-01T13:27:32.596Z,99885.91
2022-11-01T13:30:00.414Z,99883.31
2022-11-01T13:32:28.240Z,99885.72
2022-11-01T13:34:57.357Z,99881.75
2022-11-01T13:37:25.422Z,99878.31
2022-11-01T13:39:53.460Z,99888.59
2022-11-01T13:42:22.437Z,99888.19
2022-11-01T13:44:50.300Z,99878.25
2022-11-01T13:47:18.546Z,99878.78
2022-11-01T13:49:46.326Z,99882.22
2022-11-01T13:52:14.169Z,99878.22
2022-11-01T13:54:42.122Z,99885.50
2022-11-01T13:57:10.211Z,99882.66
2022-11-01T13:59:38.864Z,99884.69
2022-11-01T14:02:06.828Z,99887.03
2022-11-01T14:04:34.929Z,99887.03
2022-11-01T14:07:04.993Z,99892.81
2022-11-01T14:09:33.027Z,99892.63
2022-11-01T14:12:01.795Z,99894.00
2022-11-01T14:14:29.661Z,99894.66
2022-11-01T14:16:57.485Z,99889.72
2022-11-01T14:19:27.617Z,99893.53
2022-11-01T14:21:55.790Z,99886.09
2022-11-01T14:24:30.702Z,99888.16
2022-11-01T14:27:03.766Z,99878.53
2022-11-01T14:29:33.069Z,99876.56
2022-11-01T14:32:01.589Z,99880.78
2022-11-01T14:34:29.842Z,99883.09
2022-11-01T14:36:57.661Z,99879.47
2022-11-01T14:39:26.198Z,99882.91
2022-11-01T14:41:56.336Z,99893.94
2022-11-01T14:44:26.091Z,99890.97
2022-11-01T14:46:54.019Z,99896.25
2022-11-01T14:49:21.813Z,99897.34
2022-11-01T14:51:50.203Z,99903.78
2022-11-01T14:54:18.093Z,99912.78
2022-11-01T14:56:46.107Z,99901.81
2022-11-01T14:59:15.641Z,99909.78
2022-11-01T15:01:43.807Z,99902.94
2022-11-01T15:04:12.288Z,99897.22
2022-11-01T15:06:40.035Z,99900.22
2022-11-01T15:09:07.920Z,99908.44
2022-11-01T15:11:38.447Z,99910.91
2022-11-01T15:14:06.394Z,99908.88
2022-11-01T15:16:34.387Z,99910.19
2022-11-01T15:19:02.600Z,99907.94
2022-11-01T15:21:31.488Z,99918.84
2022-11-01T15:24:00.035Z,99909.91
2022-11-01T15:26:28.228Z,99921.44
2022-11-01T15:28:56.051Z,99918.06
2022-11-01T15:31:23.837Z,99914.31
2022-11-01T15:33:51.687Z,99921.34
2022-11-01T15:36:20.346Z,99920.25
2022-11-01T15:38:48.256Z,99928.13
2022-11-01T15:41:16.095Z,99918.13
2022-11-01T15:43:43.873Z,99928.69
2022-11-01T15:46:11.729Z,99914.19
2022-11-01T15:48:44.556Z,99923.72
2022-11-01T15:51:12.393Z,99924.06
2022-11-01T15:53:40.790Z,99926.03
2022-11-01T15:56:08.872Z,99927.38
2022-11-01T15:58:36.675Z,99933.50
2022-11-01T16:01:06.992Z,99930.59
2022-11-01T16:03:35.115Z,99925.00
2022-11-01T16:06:02.872Z,99932.81
2022-11-01T16:08:30.899Z,99933.44
2022-11-01T16:10:58.731Z,99938.44
2022-11-01T16:13:27.024Z,99940.59
2022-11-01T16:15:54.919Z,99944.72
2022-11-01T16:18:22.916Z,99936.28
2022-11-01T16:20:52.904Z,99938.56
2022-11-01T16:23:20.643Z,99935.50
2022-11-01T16:25:48.859Z,99942.59
2022-11-01T16:28:16.740Z,99940.50
2022-11-01T16:30:45.684Z,99948.34
2022-11-01T16:33:13.987Z,99947.63
2022-11-01T16:35:41.900Z,99952.28
2022-11-01T16:38:10.190Z,99954.59
2022-11-01T16:40:39.203Z,99950.81
2022-11-01T16:43:07.214Z,99949.72
2022-11-01T16:45:34.991Z,99960.91
2022-11-01T16:48:03.192Z,99950.47
2022-11-01T16:50:32.726Z,99953.28
2022-11-01T16:53:00.660Z,99955.97
2022-11-01T16:55:30.427Z,99958.94
2022-11-01T16:57:59.225Z,99960.25
2022-11-01T17:00:27.845Z,99959.84
2022-11-01T17:02:59.878Z,99968.19
2022-11-01T17:05:27.983Z,99961.41
2022-11-01T17:07:56.056Z,99962.56
2022-11-01T17:10:25.825Z,99970.19
2022-11-01T17:12:54.934Z,99976.69
2022-11-01T17:15:24.527Z,99981.34
2022-11-01T17:17:53.081Z,99977.41
2022-11-01T17:20:23.724Z,99983.75
2022-11-01T17:22:52.770Z,99984.75
2022-11-01T17:25:23.276Z,99981.38
2022-11-01T17:27:57.851Z,99988.13
2022-11-01T17:30:27.239Z,99983.22
2022-11-01T17:32:57.816Z,99980.72
2022-11-01T17:35:30.186Z,99981.66
2022-11-01T17:38:09.749Z,99982.81
2022-11-01T17:40:39.805Z,99982.97
2022-11-01T17:43:07.612Z,99991.31
2022-11-01T17:45:35.408Z,99991.53
2022-11-01T17:48:07.895Z,99990.84
2022-11-01T17:50:35.743Z,100000.84
2022-11-01T17:53:03.763Z,100001.13
2022-11-01T17:55:33.897Z,100004.50
2022-11-01T17:58:03.183Z,99999.13
2022-11-01T18:00:37.772Z,100007.47
2022-11-01T18:03:06.647Z,99992.41
2022-11-01T18:05:35.662Z,100007.47
2022-11-01T18:08:08.282Z,100013.81
2022-11-01T18:10:40.353Z,100014.94
2022-11-01T18:13:09.796Z,100018.75
2022-11-01T18:15:40.565Z,100018.03
2022-11-01T18:18:10.618Z,100018.47
2022-11-01T18:20:45.903Z,100021.28
2022-11-01T18:23:14.828Z,100012.44
2022-11-01T18:25:44.140Z,100013.25
2022-11-01T18:28:14.058Z,100020.59
2022-11-01T18:30:43.260Z,100005.53
2022-11-01T18:33:12.096Z,100001.28
2022-11-01T18:35:41.550Z,100014.66
2022-11-01T18:38:10.751Z,100012.13
2022-11-01T18:40:39.918Z,100016.78
2022-11-01T18:43:09.588Z,100006.38
2022-11-01T18:46:04.336Z,100003.94
2022-11-01T18:48:30.002Z,100008.47
2022-11-01T18:51:04.629Z,100005.25
2022-11-01T18:53:37.888Z,100014.38
2022-11-01T18:56:08.969Z,100006.50
2022-11-01T18:58:38.917Z,100012.13
2022-11-01T19:01:09.179Z,100010.44
2022-11-01T19:03:38.673Z,100014.38
2022-11-01T19:06:08.988Z,100017.06
2022-11-01T19:08:38.531Z,100013.69
2022-11-01T19:11:07.889Z,100014.91
2022-11-01T19:13:37.095Z,100006.91
2022-11-01T19:16:10.716Z,100012.97
2022-11-01T19:18:42.400Z,100014.91
2022-11-01T19:21:12.552Z,100016.91
2022-11-01T19:23:41.741Z,100010.84
2022-11-01T19:26:13.264Z,100022.53
2022-11-01T19:28:42.859Z,100027.31
2022-11-01T19:31:12.002Z,100019.72
2022-11-01T19:33:41.348Z,100017.28
2022-11-01T19:36:15.809Z,100013.06
2022-11-01T19:38:45.998Z,100018.28
2022-11-01T19:41:15.138Z,100010.69
2022-11-01T19:43:44.697Z,100009.00
2022-11-01T19:46:18.580Z,100013.34
2022-11-01T19:48:47.883Z,100009.13
2022-11-01T19:51:17.229Z,100016.44
2022-11-01T19:53:46.281Z,100002.50
2022-11-01T19:56:19.379Z,100005.28
2022-11-01T19:58:49.939Z,100007.41
2022-11-01T20:01:20.264Z,100014.72
2022-11-01T20:03:49.660Z,100022.88
2022-11-01T20:06:24.281Z,100017.81
2022-11-01T20:08:53.359Z,100021.88
2022-11-01T20:11:21.380Z,100014.81
2022-11-01T20:13:49.312Z,100014.09
2022-11-01T20:16:17.519Z,100015.97
2022-11-01T20:18:48.693Z,100015.09
2022-11-01T20:21:16.554Z,100007.19
2022-11-01T20:23:44.749Z,100001.03
2022-11-01T20:26:13.020Z,100009.75
2022-11-01T20:28:40.926Z,100010.59
2022-11-01T20:31:08.735Z,100014.28
2022-11-01T20:33:36.588Z,100005.50
2022-11-01T20:36:10.761Z,100014.53
2022-11-01T20:38:39.158Z,100009.31
2022-11-01T20:41:07.026Z,100005.81
2022-11-01T20:43:36.412Z,100008.59
2022-11-01T20:46:05.503Z,100009.47
2022-11-01T20:48:33.511Z,100010.28
2022-11-01T20:51:01.504Z,100013.69
2022-11-01T20:53:29.961Z,100008.19
2022-11-01T20:55:58.651Z,100004.53
2022-11-01T20:58:27.102Z,100006.09
2022-11-01T21:00:54.925Z,100011.31
2022-11-01T21:03:22.839Z,100003.88
2022-11-01T21:05:51.293Z,100014.28
2022-11-01T21:08:23.247Z,100027.50
2022-11-01T21:10:51.134Z,100024.72
2022-11-01T21:13:21.539Z,100021.06
2022-11-01T21:15:49.812Z,100021.88
2022-11-01T21:18:17.830Z,100015.72
2022-11-01T21:20:46.342Z,100016.81
2022-11-01T21:23:14.226Z,100014.28
2022-11-01T21:25:42.096Z,100010.91
2022-11-01T21:28:10.005Z,100021.59
2022-11-01T21:30:37.830Z,100019.78
2022-11-01T21:33:06.164Z,100025.25
2022-11-01T21:35:34.747Z,100016.25
2022-11-01T21:38:02.876Z,100010.03
2022-11-01T21:40:31.015Z,100009.78
2022-11-01T21:42:58.855Z,99999.09
2022-11-01T21:45:28.214Z,99995.56
2022-11-01T21:47:57.658Z,99989.50
2022-11-01T21:50:25.532Z,99990.63
2022-11-01T21:52:53.298Z,100003.00
2022-11-01T21:55:21.148Z,100000.91
2022-11-01T21:57:50.205Z,100000.06
2022-11-01T22:00:18.014Z,99982.34
2022-11-01T22:02:46.305Z,99988.41
2022-11-01T22:05:14.077Z,99988.09
2022-11-01T22:07:41.877Z,99988.28
2022-11-01T22:10:12.176Z,99990.09
2022-11-01T22:12:39.916Z,99971.50
2022-11-01T22:15:07.657Z,99974.03
2022-11-01T22:17:35.435Z,99980.81
2022-11-01T22:20:03.219Z,99980.94
2022-11-01T22:22:31.275Z,99975.84
2022-11-01T22:24:59.495Z,99983.03
2022-11-01T22:27:27.261Z,99969.81
2022-11-01T22:29:54.948Z,99968.25
2022-11-01T22:32:22.794Z,99970.09
2022-11-01T22:34:53.189Z,99965.84
2022-11-01T22:37:20.867Z,99961.50
2022-11-01T22:39:52.876Z,99964.16
2022-11-01T22:42:22.064Z,99962.19
2022-11-01T22:44:49.873Z,99962.19
2022-11-01T22:47:18.571Z,99969.22
2022-11-01T22:49:46.359Z,99969.34
2022-11-01T22:52:15.904Z,99954.31
2022-11-01T22:54:43.550Z,99966.16
2022-11-01T22:57:11.250Z,99961.75
2022-11-01T22:59:41.387Z,99964.44
2022-11-01T23:02:09.218Z,99948.53
2022-11-01T23:04:37.113Z,99942.22
2022-11-01T23:07:05.659Z,99950.09
2022-11-01T23:09:33.337Z,99951.50
2022-11-01T23:12:18.615Z,99949.53
2022-11-01T23:14:47.751Z,99931.81
2022-11-01T23:17:15.960Z,99932.50
2022-11-01T23:19:43.675Z,99928.88
2022-11-01T23:22:11.368Z,99927.03
2022-11-01T23:24:39.425Z,99947.31
2022-11-01T23:27:08.213Z,99939.97
2022-11-01T23:29:36.286Z,99951.53
2022-11-01T23:32:03.978Z,99940.13
2022-11-01T23:34:31.626Z,99925.78
2022-11-01T23:36:59.609Z,99928.44
2022-11-01T23:39:29.097Z,99924.78
2022-11-01T23:41:56.732Z,99920.84
2022-11-01T23:44:24.370Z,99920.56
2022-11-01T23:46:53.045Z,99910.16
2022-11-01T23:49:21.014Z,99912.97
2022-11-01T23:51:53.504Z,99913.41
2022-11-01T23:54:21.131Z,99909.44
2022-11-01T23:56:48.774Z,99907.34
2022-11-01T23:59:16.344Z,99909.56
